sensor_id;sensor_type;location;lat;lon;timestamp;P1;durP1;ratioP1;P2;durP2;ratioP2
72358;SDS011;60317;48.880;-0.862;2023-07-31T00:01:27;6.38;;;2.95;;
72358;SDS011;60317;48.880;-0.862;2023-07-31T00:03:53;5.95;;;2.58;;
72358;SDS011;60317;48.880;-0.862;2023-07-31T00:06:20;6.97;;;2.90;;
72358;SDS011;60317;48.880;-0.862;2023-07-31T00:08:46;5.30;;;2.53;;
72358;SDS011;60317;48.880;-0.862;2023-07-31T00:11:13;4.88;;;2.45;;
72358;SDS011;60317;48.880;-0.862;2023-07-31T00:13:39;7.63;;;3.25;;
72358;SDS011;60317;48.880;-0.862;2023-07-31T00:16:07;6.85;;;2.88;;
72358;SDS011;60317;48.880;-0.862;2023-07-31T00:18:34;6.03;;;2.72;;
72358;SDS011;60317;48.880;-0.862;2023-07-31T00:21:00;4.78;;;2.63;;
72358;SDS011;60317;48.880;-0.862;2023-07-31T00:23:27;7.28;;;2.80;;
72358;SDS011;60317;48.880;-0.862;2023-07-31T00:25:53;7.65;;;3.15;;
72358;SDS011;60317;48.880;-0.862;2023-07-31T00:28:20;7.40;;;3.00;;
72358;SDS011;60317;48.880;-0.862;2023-07-31T00:30:46;6.80;;;3.22;;
72358;SDS011;60317;48.880;-0.862;2023-07-31T00:33:14;7.57;;;2.80;;
72358;SDS011;60317;48.880;-0.862;2023-07-31T00:35:40;6.75;;;3.10;;
72358;SDS011;60317;48.880;-0.862;2023-07-31T00:38:07;6.55;;;2.85;;
72358;SDS011;60317;48.880;-0.862;2023-07-31T00:40:34;6.70;;;2.88;;
72358;SDS011;60317;48.880;-0.862;2023-07-31T00:43:01;6.80;;;2.85;;
72358;SDS011;60317;48.880;-0.862;2023-07-31T00:45:28;5.97;;;3.13;;
72358;SDS011;60317;48.880;-0.862;2023-07-31T00:47:55;5.88;;;2.78;;
72358;SDS011;60317;48.880;-0.862;2023-07-31T00:50:23;6.85;;;2.90;;
72358;SDS011;60317;48.880;-0.862;2023-07-31T00:52:50;7.80;;;2.75;;
72358;SDS011;60317;48.880;-0.862;2023-07-31T00:55:18;6.70;;;3.20;;
72358;SDS011;60317;48.880;-0.862;2023-07-31T00:57:45;5.80;;;2.90;;
72358;SDS011;60317;48.880;-0.862;2023-07-31T01:00:12;5.22;;;2.70;;
72358;SDS011;60317;48.880;-0.862;2023-07-31T01:02:38;6.18;;;2.92;;
72358;SDS011;60317;48.880;-0.862;2023-07-31T01:05:05;5.90;;;3.10;;
72358;SDS011;60317;48.880;-0.862;2023-07-31T01:07:35;5.65;;;2.92;;
72358;SDS011;60317;48.880;-0.862;2023-07-31T01:10:12;6.03;;;2.80;;
72358;SDS011;60317;48.880;-0.862;2023-07-31T01:12:42;7.72;;;2.95;;
72358;SDS011;60317;48.880;-0.862;2023-07-31T01:15:11;8.00;;;3.20;;
72358;SDS011;60317;48.880;-0.862;2023-07-31T01:17:38;10.50;;;3.10;;
72358;SDS011;60317;48.880;-0.862;2023-07-31T01:20:05;7.20;;;3.00;;
72358;SDS011;60317;48.880;-0.862;2023-07-31T01:28:17;7.18;;;3.15;;
72358;SDS011;60317;48.880;-0.862;2023-07-31T01:30:47;7.57;;;3.13;;
72358;SDS011;60317;48.880;-0.862;2023-07-31T01:33:15;10.00;;;3.70;;
72358;SDS011;60317;48.880;-0.862;2023-07-31T01:35:43;9.32;;;3.25;;
72358;SDS011;60317;48.880;-0.862;2023-07-31T01:38:11;7.55;;;3.00;;
72358;SDS011;60317;48.880;-0.862;2023-07-31T01:40:40;7.38;;;3.20;;
72358;SDS011;60317;48.880;-0.862;2023-07-31T01:43:07;6.32;;;3.00;;
72358;SDS011;60317;48.880;-0.862;2023-07-31T01:45:35;7.40;;;2.97;;
72358;SDS011;60317;48.880;-0.862;2023-07-31T01:48:02;6.93;;;2.97;;
72358;SDS011;60317;48.880;-0.862;2023-07-31T01:50:29;5.88;;;3.00;;
72358;SDS011;60317;48.880;-0.862;2023-07-31T01:52:55;5.63;;;2.92;;
72358;SDS011;60317;48.880;-0.862;2023-07-31T01:55:22;6.90;;;3.30;;
72358;SDS011;60317;48.880;-0.862;2023-07-31T01:57:48;9.85;;;3.47;;
72358;SDS011;60317;48.880;-0.862;2023-07-31T02:00:15;5.68;;;2.95;;
72358;SDS011;60317;48.880;-0.862;2023-07-31T02:02:42;9.65;;;3.60;;
72358;SDS011;60317;48.880;-0.862;2023-07-31T02:05:09;7.18;;;3.22;;
72358;SDS011;60317;48.880;-0.862;2023-07-31T02:07:36;7.70;;;3.30;;
72358;SDS011;60317;48.880;-0.862;2023-07-31T02:10:02;7.75;;;3.45;;
72358;SDS011;60317;48.880;-0.862;2023-07-31T02:12:29;5.80;;;2.90;;
72358;SDS011;60317;48.880;-0.862;2023-07-31T02:14:55;7.10;;;3.10;;
72358;SDS011;60317;48.880;-0.862;2023-07-31T02:17:22;8.18;;;3.00;;
72358;SDS011;60317;48.880;-0.862;2023-07-31T02:19:50;7.28;;;3.33;;
72358;SDS011;60317;48.880;-0.862;2023-07-31T02:22:16;9.45;;;3.55;;
72358;SDS011;60317;48.880;-0.862;2023-07-31T02:24:43;7.10;;;3.33;;
72358;SDS011;60317;48.880;-0.862;2023-07-31T02:27:09;6.53;;;3.38;;
72358;SDS011;60317;48.880;-0.862;2023-07-31T02:29:36;5.93;;;3.20;;
72358;SDS011;60317;48.880;-0.862;2023-07-31T02:32:03;8.00;;;3.40;;
72358;SDS011;60317;48.880;-0.862;2023-07-31T02:34:29;6.47;;;3.30;;
72358;SDS011;60317;48.880;-0.862;2023-07-31T02:36:57;7.45;;;3.58;;
72358;SDS011;60317;48.880;-0.862;2023-07-31T02:39:24;8.82;;;3.70;;
72358;SDS011;60317;48.880;-0.862;2023-07-31T02:41:50;5.43;;;3.20;;
72358;SDS011;60317;48.880;-0.862;2023-07-31T02:44:17;9.35;;;3.60;;
72358;SDS011;60317;48.880;-0.862;2023-07-31T02:46:43;8.82;;;3.65;;
72358;SDS011;60317;48.880;-0.862;2023-07-31T02:49:10;6.30;;;3.17;;
72358;SDS011;60317;48.880;-0.862;2023-07-31T02:51:36;7.68;;;3.40;;
72358;SDS011;60317;48.880;-0.862;2023-07-31T02:54:04;8.52;;;3.38;;
72358;SDS011;60317;48.880;-0.862;2023-07-31T02:56:31;7.90;;;3.22;;
72358;SDS011;60317;48.880;-0.862;2023-07-31T02:58:57;9.00;;;3.97;;
72358;SDS011;60317;48.880;-0.862;2023-07-31T03:01:24;8.07;;;3.60;;
72358;SDS011;60317;48.880;-0.862;2023-07-31T03:03:50;7.68;;;3.28;;
72358;SDS011;60317;48.880;-0.862;2023-07-31T03:06:17;7.60;;;3.42;;
72358;SDS011;60317;48.880;-0.862;2023-07-31T03:08:43;7.82;;;3.78;;
72358;SDS011;60317;48.880;-0.862;2023-07-31T03:11:11;9.00;;;3.75;;
72358;SDS011;60317;48.880;-0.862;2023-07-31T03:13:38;9.63;;;3.63;;
72358;SDS011;60317;48.880;-0.862;2023-07-31T03:16:04;8.23;;;3.53;;
72358;SDS011;60317;48.880;-0.862;2023-07-31T03:18:31;6.72;;;3.55;;
72358;SDS011;60317;48.880;-0.862;2023-07-31T03:20:57;5.97;;;3.40;;
72358;SDS011;60317;48.880;-0.862;2023-07-31T03:23:24;9.68;;;3.30;;
72358;SDS011;60317;48.880;-0.862;2023-07-31T03:25:58;11.32;;;3.80;;
72358;SDS011;60317;48.880;-0.862;2023-07-31T03:28:27;6.85;;;3.45;;
72358;SDS011;60317;48.880;-0.862;2023-07-31T03:30:53;8.07;;;3.55;;
72358;SDS011;60317;48.880;-0.862;2023-07-31T03:33:20;7.35;;;3.55;;
72358;SDS011;60317;48.880;-0.862;2023-07-31T03:35:47;7.38;;;3.40;;
72358;SDS011;60317;48.880;-0.862;2023-07-31T03:38:13;7.78;;;3.72;;
72358;SDS011;60317;48.880;-0.862;2023-07-31T03:40:40;7.10;;;3.58;;
72358;SDS011;60317;48.880;-0.862;2023-07-31T03:43:06;7.05;;;3.25;;
72358;SDS011;60317;48.880;-0.862;2023-07-31T03:45:34;6.68;;;3.35;;
72358;SDS011;60317;48.880;-0.862;2023-07-31T03:48:00;8.75;;;3.30;;
72358;SDS011;60317;48.880;-0.862;2023-07-31T03:50:27;6.68;;;3.35;;
72358;SDS011;60317;48.880;-0.862;2023-07-31T03:52:54;7.60;;;3.97;;
72358;SDS011;60317;48.880;-0.862;2023-07-31T03:55:20;8.13;;;3.55;;
72358;SDS011;60317;48.880;-0.862;2023-07-31T03:57:47;8.95;;;3.58;;
72358;SDS011;60317;48.880;-0.862;2023-07-31T04:00:14;7.47;;;3.70;;
72358;SDS011;60317;48.880;-0.862;2023-07-31T04:02:42;7.95;;;3.58;;
72358;SDS011;60317;48.880;-0.862;2023-07-31T04:05:08;6.47;;;3.22;;
72358;SDS011;60317;48.880;-0.862;2023-07-31T04:07:35;7.43;;;3.42;;
72358;SDS011;60317;48.880;-0.862;2023-07-31T04:10:01;6.55;;;3.47;;
72358;SDS011;60317;48.880;-0.862;2023-07-31T04:12:29;5.97;;;3.22;;
72358;SDS011;60317;48.880;-0.862;2023-07-31T04:14:55;7.57;;;3.33;;
72358;SDS011;60317;48.880;-0.862;2023-07-31T04:17:22;7.57;;;3.60;;
72358;SDS011;60317;48.880;-0.862;2023-07-31T04:19:50;12.00;;;3.80;;
72358;SDS011;60317;48.880;-0.862;2023-07-31T04:22:16;11.27;;;3.85;;
72358;SDS011;60317;48.880;-0.862;2023-07-31T04:24:43;6.63;;;3.03;;
72358;SDS011;60317;48.880;-0.862;2023-07-31T04:27:09;6.10;;;3.28;;
72358;SDS011;60317;48.880;-0.862;2023-07-31T04:29:36;9.50;;;3.40;;
72358;SDS011;60317;48.880;-0.862;2023-07-31T04:32:03;9.77;;;3.75;;
72358;SDS011;60317;48.880;-0.862;2023-07-31T04:34:29;6.85;;;3.50;;
72358;SDS011;60317;48.880;-0.862;2023-07-31T04:36:57;7.10;;;3.13;;
72358;SDS011;60317;48.880;-0.862;2023-07-31T04:39:24;6.45;;;3.50;;
72358;SDS011;60317;48.880;-0.862;2023-07-31T04:41:50;5.55;;;3.08;;
72358;SDS011;60317;48.880;-0.862;2023-07-31T04:44:17;7.65;;;3.53;;
72358;SDS011;60317;48.880;-0.862;2023-07-31T04:46:43;6.80;;;3.35;;
72358;SDS011;60317;48.880;-0.862;2023-07-31T04:49:10;6.95;;;3.10;;
72358;SDS011;60317;48.880;-0.862;2023-07-31T04:51:37;8.15;;;3.00;;
72358;SDS011;60317;48.880;-0.862;2023-07-31T04:54:05;7.88;;;3.42;;
72358;SDS011;60317;48.880;-0.862;2023-07-31T04:56:32;7.65;;;3.05;;
72358;SDS011;60317;48.880;-0.862;2023-07-31T04:58:58;8.40;;;3.38;;
72358;SDS011;60317;48.880;-0.862;2023-07-31T05:01:24;8.25;;;3.03;;
72358;SDS011;60317;48.880;-0.862;2023-07-31T05:03:51;6.75;;;3.03;;
72358;SDS011;60317;48.880;-0.862;2023-07-31T05:06:18;6.85;;;3.50;;
72358;SDS011;60317;48.880;-0.862;2023-07-31T05:08:44;7.75;;;3.40;;
72358;SDS011;60317;48.880;-0.862;2023-07-31T05:11:12;7.65;;;3.17;;
72358;SDS011;60317;48.880;-0.862;2023-07-31T05:13:38;7.35;;;3.30;;
72358;SDS011;60317;48.880;-0.862;2023-07-31T05:16:05;8.13;;;3.53;;
72358;SDS011;60317;48.880;-0.862;2023-07-31T05:18:31;7.63;;;3.53;;
72358;SDS011;60317;48.880;-0.862;2023-07-31T05:20:58;9.13;;;3.30;;
72358;SDS011;60317;48.880;-0.862;2023-07-31T05:23:24;4.93;;;2.58;;
72358;SDS011;60317;48.880;-0.862;2023-07-31T05:25:51;7.47;;;3.42;;
72358;SDS011;60317;48.880;-0.862;2023-07-31T05:28:20;5.57;;;3.20;;
72358;SDS011;60317;48.880;-0.862;2023-07-31T05:30:47;7.97;;;3.20;;
72358;SDS011;60317;48.880;-0.862;2023-07-31T05:33:14;5.28;;;3.10;;
72358;SDS011;60317;48.880;-0.862;2023-07-31T05:35:40;8.70;;;3.35;;
72358;SDS011;60317;48.880;-0.862;2023-07-31T05:38:07;6.70;;;3.28;;
72358;SDS011;60317;48.880;-0.862;2023-07-31T05:40:33;8.02;;;3.33;;
72358;SDS011;60317;48.880;-0.862;2023-07-31T05:43:00;9.27;;;3.40;;
72358;SDS011;60317;48.880;-0.862;2023-07-31T05:45:28;7.82;;;2.83;;
72358;SDS011;60317;48.880;-0.862;2023-07-31T05:47:54;8.40;;;3.50;;
72358;SDS011;60317;48.880;-0.862;2023-07-31T05:50:21;6.88;;;3.22;;
72358;SDS011;60317;48.880;-0.862;2023-07-31T05:52:47;6.15;;;3.10;;
72358;SDS011;60317;48.880;-0.862;2023-07-31T05:55:14;6.88;;;3.35;;
72358;SDS011;60317;48.880;-0.862;2023-07-31T05:57:40;7.82;;;2.90;;
72358;SDS011;60317;48.880;-0.862;2023-07-31T06:00:08;7.40;;;3.10;;
72358;SDS011;60317;48.880;-0.862;2023-07-31T06:02:36;9.43;;;3.50;;
72358;SDS011;60317;48.880;-0.862;2023-07-31T06:05:03;7.90;;;3.22;;
72358;SDS011;60317;48.880;-0.862;2023-07-31T06:07:30;6.63;;;3.05;;
72358;SDS011;60317;48.880;-0.862;2023-07-31T06:09:57;7.50;;;3.10;;
72358;SDS011;60317;48.880;-0.862;2023-07-31T06:12:24;5.65;;;3.33;;
72358;SDS011;60317;48.880;-0.862;2023-07-31T06:14:50;6.93;;;3.20;;
72358;SDS011;60317;48.880;-0.862;2023-07-31T06:17:17;7.65;;;3.55;;
72358;SDS011;60317;48.880;-0.862;2023-07-31T06:19:45;7.72;;;3.00;;
72358;SDS011;60317;48.880;-0.862;2023-07-31T06:22:11;6.38;;;3.08;;
72358;SDS011;60317;48.880;-0.862;2023-07-31T06:24:38;6.90;;;3.25;;
72358;SDS011;60317;48.880;-0.862;2023-07-31T06:27:05;8.13;;;3.35;;
72358;SDS011;60317;48.880;-0.862;2023-07-31T06:29:32;5.65;;;3.10;;
72358;SDS011;60317;48.880;-0.862;2023-07-31T06:31:58;6.88;;;2.80;;
72358;SDS011;60317;48.880;-0.862;2023-07-31T06:34:29;7.47;;;3.17;;
72358;SDS011;60317;48.880;-0.862;2023-07-31T06:36:57;8.07;;;3.10;;
72358;SDS011;60317;48.880;-0.862;2023-07-31T06:39:23;7.63;;;2.80;;
72358;SDS011;60317;48.880;-0.862;2023-07-31T06:41:49;8.50;;;3.00;;
72358;SDS011;60317;48.880;-0.862;2023-07-31T06:44:16;6.93;;;3.00;;
72358;SDS011;60317;48.880;-0.862;2023-07-31T06:46:42;5.80;;;3.08;;
72358;SDS011;60317;48.880;-0.862;2023-07-31T06:49:09;7.97;;;2.85;;
72358;SDS011;60317;48.880;-0.862;2023-07-31T06:51:35;8.02;;;3.28;;
72358;SDS011;60317;48.880;-0.862;2023-07-31T06:54:03;5.07;;;2.53;;
72358;SDS011;60317;48.880;-0.862;2023-07-31T06:56:30;5.97;;;2.80;;
72358;SDS011;60317;48.880;-0.862;2023-07-31T06:58:56;6.90;;;2.85;;
72358;SDS011;60317;48.880;-0.862;2023-07-31T07:01:23;5.40;;;2.65;;
72358;SDS011;60317;48.880;-0.862;2023-07-31T07:03:49;6.25;;;2.90;;
72358;SDS011;60317;48.880;-0.862;2023-07-31T07:06:16;5.47;;;2.53;;
72358;SDS011;60317;48.880;-0.862;2023-07-31T07:08:43;6.50;;;2.78;;
72358;SDS011;60317;48.880;-0.862;2023-07-31T07:11:10;8.20;;;3.40;;
72358;SDS011;60317;48.880;-0.862;2023-07-31T07:13:37;5.65;;;2.78;;
72358;SDS011;60317;48.880;-0.862;2023-07-31T07:16:05;6.97;;;2.95;;
72358;SDS011;60317;48.880;-0.862;2023-07-31T07:18:31;7.43;;;2.90;;
72358;SDS011;60317;48.880;-0.862;2023-07-31T07:20:58;6.60;;;2.47;;
72358;SDS011;60317;48.880;-0.862;2023-07-31T07:23:24;5.38;;;2.47;;
72358;SDS011;60317;48.880;-0.862;2023-07-31T07:25:51;6.40;;;2.90;;
72358;SDS011;60317;48.880;-0.862;2023-07-31T07:28:19;5.38;;;2.45;;
72358;SDS011;60317;48.880;-0.862;2023-07-31T07:30:50;7.60;;;2.75;;
72358;SDS011;60317;48.880;-0.862;2023-07-31T07:33:17;4.68;;;2.60;;
72358;SDS011;60317;48.880;-0.862;2023-07-31T07:35:44;6.32;;;2.47;;
72358;SDS011;60317;48.880;-0.862;2023-07-31T07:38:10;5.30;;;2.67;;
72358;SDS011;60317;48.880;-0.862;2023-07-31T07:40:38;5.72;;;2.88;;
72358;SDS011;60317;48.880;-0.862;2023-07-31T07:43:05;5.75;;;2.60;;
72358;SDS011;60317;48.880;-0.862;2023-07-31T07:45:32;6.28;;;2.80;;
72358;SDS011;60317;48.880;-0.862;2023-07-31T07:47:59;5.38;;;2.60;;
72358;SDS011;60317;48.880;-0.862;2023-07-31T07:50:25;6.15;;;2.63;;
72358;SDS011;60317;48.880;-0.862;2023-07-31T07:52:52;6.03;;;2.63;;
72358;SDS011;60317;48.880;-0.862;2023-07-31T07:55:18;4.82;;;2.45;;
72358;SDS011;60317;48.880;-0.862;2023-07-31T07:57:45;5.22;;;2.47;;
72358;SDS011;60317;48.880;-0.862;2023-07-31T08:00:12;6.05;;;2.60;;
72358;SDS011;60317;48.880;-0.862;2023-07-31T08:02:40;4.78;;;2.30;;
72358;SDS011;60317;48.880;-0.862;2023-07-31T08:05:07;4.32;;;2.50;;
72358;SDS011;60317;48.880;-0.862;2023-07-31T08:07:34;7.15;;;2.78;;
72358;SDS011;60317;48.880;-0.862;2023-07-31T08:10:01;6.40;;;2.60;;
72358;SDS011;60317;48.880;-0.862;2023-07-31T08:12:28;5.68;;;2.72;;
72358;SDS011;60317;48.880;-0.862;2023-07-31T08:14:54;7.78;;;2.63;;
72358;SDS011;60317;48.880;-0.862;2023-07-31T08:17:21;4.30;;;2.53;;
72358;SDS011;60317;48.880;-0.862;2023-07-31T08:19:48;6.80;;;2.53;;
72358;SDS011;60317;48.880;-0.862;2023-07-31T08:22:15;5.45;;;2.33;;
72358;SDS011;60317;48.880;-0.862;2023-07-31T08:24:41;6.85;;;2.60;;
72358;SDS011;60317;48.880;-0.862;2023-07-31T08:27:08;6.15;;;2.72;;
72358;SDS011;60317;48.880;-0.862;2023-07-31T08:29:34;6.90;;;2.30;;
72358;SDS011;60317;48.880;-0.862;2023-07-31T08:32:01;7.63;;;2.60;;
72358;SDS011;60317;48.880;-0.862;2023-07-31T08:34:27;4.95;;;2.40;;
72358;SDS011;60317;48.880;-0.862;2023-07-31T08:36:55;5.53;;;2.97;;
72358;SDS011;60317;48.880;-0.862;2023-07-31T08:39:22;6.50;;;2.17;;
72358;SDS011;60317;48.880;-0.862;2023-07-31T08:41:48;6.72;;;2.47;;
72358;SDS011;60317;48.880;-0.862;2023-07-31T08:44:15;6.45;;;2.40;;
72358;SDS011;60317;48.880;-0.862;2023-07-31T08:46:43;7.57;;;2.58;;
72358;SDS011;60317;48.880;-0.862;2023-07-31T08:49:12;6.78;;;2.60;;
72358;SDS011;60317;48.880;-0.862;2023-07-31T08:51:39;5.35;;;2.38;;
72358;SDS011;60317;48.880;-0.862;2023-07-31T08:54:09;6.00;;;2.72;;
72358;SDS011;60317;48.880;-0.862;2023-07-31T08:56:35;5.03;;;2.40;;
72358;SDS011;60317;48.880;-0.862;2023-07-31T08:59:03;4.00;;;2.20;;
72358;SDS011;60317;48.880;-0.862;2023-07-31T09:01:30;6.20;;;2.55;;
72358;SDS011;60317;48.880;-0.862;2023-07-31T09:04:02;4.22;;;2.30;;
72358;SDS011;60317;48.880;-0.862;2023-07-31T09:06:30;4.10;;;2.17;;
72358;SDS011;60317;48.880;-0.862;2023-07-31T09:08:58;5.57;;;2.38;;
72358;SDS011;60317;48.880;-0.862;2023-07-31T09:11:26;4.53;;;2.22;;
72358;SDS011;60317;48.880;-0.862;2023-07-31T09:13:52;5.97;;;2.30;;
72358;SDS011;60317;48.880;-0.862;2023-07-31T09:16:26;5.72;;;2.28;;
72358;SDS011;60317;48.880;-0.862;2023-07-31T09:18:54;4.38;;;1.92;;
72358;SDS011;60317;48.880;-0.862;2023-07-31T09:21:21;4.40;;;1.85;;
72358;SDS011;60317;48.880;-0.862;2023-07-31T09:23:47;4.63;;;2.17;;
72358;SDS011;60317;48.880;-0.862;2023-07-31T09:28:58;3.70;;;2.00;;
72358;SDS011;60317;48.880;-0.862;2023-07-31T09:31:32;3.80;;;1.80;;
72358;SDS011;60317;48.880;-0.862;2023-07-31T09:33:59;4.22;;;2.00;;
72358;SDS011;60317;48.880;-0.862;2023-07-31T09:36:28;3.45;;;2.03;;
72358;SDS011;60317;48.880;-0.862;2023-07-31T09:38:55;3.55;;;2.05;;
72358;SDS011;60317;48.880;-0.862;2023-07-31T09:41:23;4.60;;;2.30;;
72358;SDS011;60317;48.880;-0.862;2023-07-31T09:43:54;3.70;;;1.90;;
72358;SDS011;60317;48.880;-0.862;2023-07-31T09:46:21;4.25;;;2.08;;
72358;SDS011;60317;48.880;-0.862;2023-07-31T09:48:47;3.47;;;1.85;;
72358;SDS011;60317;48.880;-0.862;2023-07-31T09:51:14;2.50;;;1.58;;
72358;SDS011;60317;48.880;-0.862;2023-07-31T09:53:40;2.90;;;1.85;;
72358;SDS011;60317;48.880;-0.862;2023-07-31T09:56:07;2.95;;;1.60;;
72358;SDS011;60317;48.880;-0.862;2023-07-31T09:58:34;4.63;;;2.00;;
72358;SDS011;60317;48.880;-0.862;2023-07-31T10:01:02;3.50;;;1.95;;
72358;SDS011;60317;48.880;-0.862;2023-07-31T10:03:29;4.88;;;2.20;;
72358;SDS011;60317;48.880;-0.862;2023-07-31T10:05:56;3.25;;;1.65;;
72358;SDS011;60317;48.880;-0.862;2023-07-31T10:08:26;3.58;;;1.90;;
72358;SDS011;60317;48.880;-0.862;2023-07-31T10:10:54;3.55;;;1.73;;
72358;SDS011;60317;48.880;-0.862;2023-07-31T10:13:25;3.13;;;1.70;;
72358;SDS011;60317;48.880;-0.862;2023-07-31T10:15:54;2.85;;;1.60;;
72358;SDS011;60317;48.880;-0.862;2023-07-31T10:18:22;4.15;;;1.73;;
72358;SDS011;60317;48.880;-0.862;2023-07-31T10:20:49;4.93;;;1.55;;
72358;SDS011;60317;48.880;-0.862;2023-07-31T10:23:16;4.85;;;1.70;;
72358;SDS011;60317;48.880;-0.862;2023-07-31T10:25:43;2.35;;;1.58;;
72358;SDS011;60317;48.880;-0.862;2023-07-31T10:28:10;2.55;;;1.60;;
72358;SDS011;60317;48.880;-0.862;2023-07-31T10:30:38;3.17;;;1.80;;
72358;SDS011;60317;48.880;-0.862;2023-07-31T10:33:05;5.03;;;1.85;;
72358;SDS011;60317;48.880;-0.862;2023-07-31T10:35:34;3.33;;;1.92;;
72358;SDS011;60317;48.880;-0.862;2023-07-31T10:38:08;2.45;;;1.77;;
72358;SDS011;60317;48.880;-0.862;2023-07-31T10:40:36;3.40;;;1.95;;
72358;SDS011;60317;48.880;-0.862;2023-07-31T10:43:02;4.18;;;2.20;;
72358;SDS011;60317;48.880;-0.862;2023-07-31T10:45:31;2.63;;;1.88;;
72358;SDS011;60317;48.880;-0.862;2023-07-31T10:47:59;3.78;;;1.92;;
72358;SDS011;60317;48.880;-0.862;2023-07-31T10:50:27;2.88;;;1.80;;
72358;SDS011;60317;48.880;-0.862;2023-07-31T10:52:56;3.35;;;2.03;;
72358;SDS011;60317;48.880;-0.862;2023-07-31T10:55:24;3.22;;;1.90;;
72358;SDS011;60317;48.880;-0.862;2023-07-31T10:57:53;3.78;;;2.20;;
72358;SDS011;60317;48.880;-0.862;2023-07-31T11:00:21;3.28;;;1.90;;
72358;SDS011;60317;48.880;-0.862;2023-07-31T11:02:56;3.83;;;1.92;;
72358;SDS011;60317;48.880;-0.862;2023-07-31T11:08:13;2.42;;;1.65;;
72358;SDS011;60317;48.880;-0.862;2023-07-31T11:10:41;2.47;;;1.70;;
72358;SDS011;60317;48.880;-0.862;2023-07-31T11:13:08;3.40;;;1.77;;
72358;SDS011;60317;48.880;-0.862;2023-07-31T11:15:34;2.38;;;1.52;;
72358;SDS011;60317;48.880;-0.862;2023-07-31T11:18:01;4.38;;;2.03;;
72358;SDS011;60317;48.880;-0.862;2023-07-31T11:20:29;2.40;;;1.45;;
72358;SDS011;60317;48.880;-0.862;2023-07-31T11:22:57;4.65;;;1.90;;
72358;SDS011;60317;48.880;-0.862;2023-07-31T11:25:29;2.28;;;1.63;;
72358;SDS011;60317;48.880;-0.862;2023-07-31T11:27:56;3.17;;;1.88;;
72358;SDS011;60317;48.880;-0.862;2023-07-31T11:30:24;2.53;;;1.77;;
72358;SDS011;60317;48.880;-0.862;2023-07-31T11:32:50;2.63;;;1.70;;
72358;SDS011;60317;48.880;-0.862;2023-07-31T11:35:17;3.10;;;1.70;;
72358;SDS011;60317;48.880;-0.862;2023-07-31T11:37:44;2.67;;;1.92;;
72358;SDS011;60317;48.880;-0.862;2023-07-31T11:40:10;4.00;;;1.70;;
72358;SDS011;60317;48.880;-0.862;2023-07-31T11:42:38;3.53;;;1.75;;
72358;SDS011;60317;48.880;-0.862;2023-07-31T11:45:05;6.28;;;2.40;;
72358;SDS011;60317;48.880;-0.862;2023-07-31T11:47:33;4.32;;;2.35;;
72358;SDS011;60317;48.880;-0.862;2023-07-31T11:50:01;3.42;;;1.98;;
72358;SDS011;60317;48.880;-0.862;2023-07-31T11:52:28;4.93;;;2.45;;
72358;SDS011;60317;48.880;-0.862;2023-07-31T11:54:58;4.03;;;2.17;;
72358;SDS011;60317;48.880;-0.862;2023-07-31T11:57:25;4.78;;;2.78;;
72358;SDS011;60317;48.880;-0.862;2023-07-31T11:59:55;5.20;;;2.33;;
72358;SDS011;60317;48.880;-0.862;2023-07-31T12:02:23;2.58;;;1.90;;
72358;SDS011;60317;48.880;-0.862;2023-07-31T12:04:50;3.70;;;2.20;;
72358;SDS011;60317;48.880;-0.862;2023-07-31T12:07:16;5.28;;;2.30;;
72358;SDS011;60317;48.880;-0.862;2023-07-31T12:09:51;4.03;;;2.63;;
72358;SDS011;60317;48.880;-0.862;2023-07-31T12:12:19;4.60;;;2.50;;
72358;SDS011;60317;48.880;-0.862;2023-07-31T12:14:46;5.95;;;2.47;;
72358;SDS011;60317;48.880;-0.862;2023-07-31T12:17:14;4.97;;;2.72;;
72358;SDS011;60317;48.880;-0.862;2023-07-31T12:19:41;5.13;;;2.42;;
72358;SDS011;60317;48.880;-0.862;2023-07-31T12:22:11;4.70;;;2.50;;
72358;SDS011;60317;48.880;-0.862;2023-07-31T12:24:39;4.70;;;2.22;;
72358;SDS011;60317;48.880;-0.862;2023-07-31T12:27:08;4.32;;;2.58;;
72358;SDS011;60317;48.880;-0.862;2023-07-31T12:29:35;7.43;;;3.17;;
72358;SDS011;60317;48.880;-0.862;2023-07-31T12:32:20;5.65;;;2.55;;
72358;SDS011;60317;48.880;-0.862;2023-07-31T12:34:47;5.47;;;2.60;;
72358;SDS011;60317;48.880;-0.862;2023-07-31T12:37:13;4.80;;;2.47;;
72358;SDS011;60317;48.880;-0.862;2023-07-31T12:39:40;5.88;;;2.60;;
72358;SDS011;60317;48.880;-0.862;2023-07-31T12:42:07;3.58;;;2.30;;
72358;SDS011;60317;48.880;-0.862;2023-07-31T12:44:33;6.15;;;2.70;;
72358;SDS011;60317;48.880;-0.862;2023-07-31T12:47:00;5.28;;;2.78;;
72358;SDS011;60317;48.880;-0.862;2023-07-31T12:49:27;4.85;;;2.38;;
72358;SDS011;60317;48.880;-0.862;2023-07-31T12:51:54;4.85;;;2.17;;
72358;SDS011;60317;48.880;-0.862;2023-07-31T12:54:21;4.07;;;2.40;;
72358;SDS011;60317;48.880;-0.862;2023-07-31T12:56:47;4.22;;;2.40;;
72358;SDS011;60317;48.880;-0.862;2023-07-31T12:59:14;4.75;;;2.40;;
72358;SDS011;60317;48.880;-0.862;2023-07-31T13:01:40;4.55;;;2.47;;
72358;SDS011;60317;48.880;-0.862;2023-07-31T13:04:07;6.40;;;2.88;;
72358;SDS011;60317;48.880;-0.862;2023-07-31T13:06:34;5.60;;;2.90;;
72358;SDS011;60317;48.880;-0.862;2023-07-31T13:09:01;5.60;;;2.42;;
72358;SDS011;60317;48.880;-0.862;2023-07-31T13:11:27;4.90;;;2.65;;
72358;SDS011;60317;48.880;-0.862;2023-07-31T13:13:54;5.97;;;2.83;;
72358;SDS011;60317;48.880;-0.862;2023-07-31T13:16:20;4.57;;;2.80;;
72358;SDS011;60317;48.880;-0.862;2023-07-31T13:18:47;5.25;;;2.35;;
72358;SDS011;60317;48.880;-0.862;2023-07-31T13:21:13;5.38;;;2.40;;
72358;SDS011;60317;48.880;-0.862;2023-07-31T13:23:42;6.40;;;2.58;;
72358;SDS011;60317;48.880;-0.862;2023-07-31T13:26:08;6.63;;;2.70;;
72358;SDS011;60317;48.880;-0.862;2023-07-31T13:28:35;6.00;;;2.70;;
72358;SDS011;60317;48.880;-0.862;2023-07-31T13:31:01;3.92;;;2.40;;
72358;SDS011;60317;48.880;-0.862;2023-07-31T13:33:28;3.85;;;2.30;;
72358;SDS011;60317;48.880;-0.862;2023-07-31T13:36:04;5.07;;;2.42;;
72358;SDS011;60317;48.880;-0.862;2023-07-31T13:38:30;4.35;;;2.50;;
72358;SDS011;60317;48.880;-0.862;2023-07-31T13:40:58;3.65;;;2.33;;
72358;SDS011;60317;48.880;-0.862;2023-07-31T13:43:25;4.55;;;2.47;;
72358;SDS011;60317;48.880;-0.862;2023-07-31T13:45:51;5.35;;;2.20;;
72358;SDS011;60317;48.880;-0.862;2023-07-31T13:48:18;4.57;;;2.60;;
72358;SDS011;60317;48.880;-0.862;2023-07-31T13:50:44;6.35;;;2.33;;
72358;SDS011;60317;48.880;-0.862;2023-07-31T13:53:11;4.65;;;2.45;;
72358;SDS011;60317;48.880;-0.862;2023-07-31T13:55:38;3.53;;;2.10;;
72358;SDS011;60317;48.880;-0.862;2023-07-31T13:58:06;4.53;;;2.60;;
72358;SDS011;60317;48.880;-0.862;2023-07-31T14:00:33;5.95;;;2.53;;
72358;SDS011;60317;48.880;-0.862;2023-07-31T14:02:59;4.95;;;2.40;;
72358;SDS011;60317;48.880;-0.862;2023-07-31T14:05:26;5.07;;;2.30;;
72358;SDS011;60317;48.880;-0.862;2023-07-31T14:07:53;3.17;;;2.22;;
72358;SDS011;60317;48.880;-0.862;2023-07-31T14:10:19;5.07;;;2.38;;
72358;SDS011;60317;48.880;-0.862;2023-07-31T14:12:46;3.90;;;2.22;;
72358;SDS011;60317;48.880;-0.862;2023-07-31T14:15:13;4.88;;;2.50;;
72358;SDS011;60317;48.880;-0.862;2023-07-31T14:17:40;4.07;;;2.25;;
72358;SDS011;60317;48.880;-0.862;2023-07-31T14:20:07;3.88;;;2.28;;
72358;SDS011;60317;48.880;-0.862;2023-07-31T14:22:35;4.38;;;2.25;;
72358;SDS011;60317;48.880;-0.862;2023-07-31T14:25:01;3.42;;;2.25;;
72358;SDS011;60317;48.880;-0.862;2023-07-31T14:27:28;4.45;;;2.40;;
72358;SDS011;60317;48.880;-0.862;2023-07-31T14:29:55;4.25;;;2.00;;
72358;SDS011;60317;48.880;-0.862;2023-07-31T14:32:23;3.22;;;1.88;;
72358;SDS011;60317;48.880;-0.862;2023-07-31T14:34:49;5.18;;;2.33;;
72358;SDS011;60317;48.880;-0.862;2023-07-31T14:37:16;2.92;;;1.90;;
72358;SDS011;60317;48.880;-0.862;2023-07-31T14:39:42;2.92;;;1.88;;
72358;SDS011;60317;48.880;-0.862;2023-07-31T14:42:09;3.63;;;2.00;;
72358;SDS011;60317;48.880;-0.862;2023-07-31T14:44:35;3.65;;;2.10;;